Time;durP1;ratioP1;P1;durP2;ratioP2;P2;SDS_P1;SDS_P2;PMS_P1;PMS_P2;Temp;Humidity;BMP_temperature;BMP_pressure;BME280_temperature;BME280_humidity;BME280_pressure;Samples;Min_cycle;Max_cycle;Signal;HPM_P1;HPM_P2
2021/06/10 00:00:04;;;;;;;11.18;8.80;;;16.30;90.90;;;;;;5048457;28;20630;-72
2021/06/10 00:02:30;;;;;;;7.30;6.60;;;16.30;91.00;;;;;;5048145;28;20176;-73
2021/06/10 00:04:55;;;;;;;5.15;4.68;;;16.20;91.00;;;;;;5047932;28;21090;-72
2021/06/10 00:07:21;;;;;;;6.38;5.90;;;16.20;91.30;;;;;;5046017;28;20555;-71
2021/06/10 00:09:48;;;;;;;9.27;8.32;;;16.20;91.90;;;;;;5045734;28;20256;-71
2021/06/10 00:12:16;;;;;;;29.88;16.00;;;16.20;92.20;;;;;;5047708;28;20207;-73
2021/06/10 00:14:44;;;;;;;20.40;14.07;;;16.10;92.40;;;;;;5047139;28;20592;-72
2021/06/10 00:17:09;;;;;;;5.32;4.93;;;16.10;92.90;;;;;;5047507;28;20634;-73
2021/06/10 00:19:35;;;;;;;2.70;2.60;;;16.00;93.40;;;;;;5047579;28;20266;-73
2021/06/10 00:22:01;;;;;;;3.40;3.20;;;15.90;93.80;;;;;;5047577;28;20182;-73
2021/06/10 00:24:27;;;;;;;2.75;2.72;;;15.80;93.70;;;;;;5047674;28;20188;-73
2021/06/10 00:26:52;;;;;;;2.67;2.58;;;15.70;94.30;;;;;;5047660;28;20691;-74
2021/06/10 00:29:18;;;;;;;2.47;2.38;;;15.60;94.60;;;;;;5043454;28;20211;-73
2021/06/10 00:31:44;;;;;;;2.55;2.45;;;15.50;94.20;;;;;;5048633;28;20206;-73
2021/06/10 00:34:09;;;;;;;2.45;2.35;;;15.50;94.10;;;;;;5048576;28;20262;-73
2021/06/10 00:36:35;;;;;;;3.05;2.95;;;15.50;93.70;;;;;;5048246;28;20211;-73
2021/06/10 00:39:02;;;;;;;3.53;3.22;;;15.50;93.80;;;;;;5048434;28;20172;-73
2021/06/10 00:41:35;;;;;;;2.67;2.58;;;15.50;94.50;;;;;;5048627;28;20604;-74
2021/06/10 00:44:06;;;;;;;3.40;2.47;;;15.50;94.00;;;;;;5047996;28;20179;-74
2021/06/10 00:46:33;;;;;;;2.47;2.38;;;15.50;93.60;;;;;;5041274;28;20184;-73
2021/06/10 00:48:59;;;;;;;2.47;2.25;;;15.50;93.30;;;;;;5029038;28;20187;-72
2021/06/10 00:51:25;;;;;;;2.60;2.53;;;15.50;93.00;;;;;;5047456;28;20943;-73
2021/06/10 00:53:50;;;;;;;5.35;3.10;;;15.50;92.90;;;;;;5048119;28;20210;-73
2021/06/10 00:56:16;;;;;;;3.13;2.67;;;15.50;93.40;;;;;;5047348;28;20183;-73
2021/06/10 00:58:42;;;;;;;2.80;2.70;;;15.50;93.20;;;;;;5048020;28;20659;-73
2021/06/10 01:01:08;;;;;;;2.80;2.70;;;15.50;93.10;;;;;;5041269;28;20184;-73
2021/06/10 01:03:35;;;;;;;2.65;2.45;;;15.50;93.10;;;;;;5045672;28;20191;-72
2021/06/10 01:06:07;;;;;;;2.72;2.53;;;15.50;93.40;;;;;;5035708;28;20282;-73
2021/06/10 01:08:46;;;;;;;2.83;2.63;;;15.50;93.70;;;;;;5048237;28;20680;-73
2021/06/10 01:11:39;;;;;;;2.20;2.10;;;15.50;93.60;;;;;;5040044;28;20192;-72
2021/06/10 01:14:35;;;;;;;2.83;2.58;;;15.50;93.30;;;;;;5045992;28;20289;-73
2021/06/10 01:17:04;;;;;;;3.67;3.38;;;15.40;93.90;;;;;;5046767;28;20644;-73
2021/06/10 01:19:41;;;;;;;1.83;1.83;;;15.40;93.80;;;;;;5048067;28;20775;-73
2021/06/10 01:22:25;;;;;;;2.30;2.10;;;15.40;93.40;;;;;;5044425;28;20179;-73
2021/06/10 01:25:14;;;;;;;2.78;2.67;;;15.40;93.00;;;;;;5045439;28;20187;-73
2021/06/10 01:27:45;;;;;;;3.30;2.92;;;15.40;93.00;;;;;;5047652;28;20187;-73
2021/06/10 01:30:23;;;;;;;2.50;2.40;;;15.30;93.20;;;;;;5047385;28;20180;-73
2021/06/10 01:32:56;;;;;;;2.30;2.20;;;15.30;93.00;;;;;;5044416;28;20183;-72
2021/06/10 01:35:25;;;;;;;2.78;2.67;;;15.30;93.30;;;;;;5038663;28;20226;-72
2021/06/10 01:37:53;;;;;;;3.88;2.80;;;15.30;93.30;;;;;;5047573;28;20179;-72
2021/06/10 01:40:23;;;;;;;4.93;3.97;;;15.30;93.40;;;;;;5047805;28;20175;-72
2021/06/10 01:42:50;;;;;;;4.10;3.80;;;15.30;93.80;;;;;;5047500;28;20180;-76
2021/06/10 01:45:17;;;;;;;4.53;4.22;;;15.30;93.60;;;;;;5040342;28;20786;-73
2021/06/10 01:47:45;;;;;;;4.05;3.75;;;15.30;93.60;;;;;;5047316;28;20983;-73
2021/06/10 01:50:13;;;;;;;3.55;3.40;;;15.30;93.60;;;;;;5029125;28;20225;-73
2021/06/10 01:52:41;;;;;;;3.90;3.60;;;15.20;93.80;;;;;;5029278;28;20198;-73
2021/06/10 01:55:10;;;;;;;3.45;3.30;;;15.20;93.60;;;;;;5046983;28;20211;-73
2021/06/10 01:57:37;;;;;;;2.90;2.80;;;15.20;93.70;;;;;;5028989;28;20657;-73
2021/06/10 02:00:06;;;;;;;3.08;2.88;;;15.20;93.90;;;;;;5047254;28;20262;-73
2021/06/10 02:02:34;;;;;;;3.72;3.55;;;15.10;94.20;;;;;;5045973;28;20182;-73
2021/06/10 02:05:00;;;;;;;5.25;4.85;;;15.10;94.90;;;;;;5042162;28;20258;-73
2021/06/10 02:07:26;;;;;;;4.68;3.65;;;15.00;95.80;;;;;;5044631;28;20185;-72
2021/06/10 02:09:52;;;;;;;3.85;3.55;;;15.00;95.40;;;;;;5046152;28;20191;-73
2021/06/10 02:12:18;;;;;;;4.25;3.80;;;15.00;95.30;;;;;;5050057;28;20175;-72
2021/06/10 02:14:44;;;;;;;4.30;3.90;;;15.00;95.20;;;;;;5051088;28;20222;-72
2021/06/10 02:17:11;;;;;;;5.78;3.90;;;15.00;94.90;;;;;;5051474;28;20186;-73
2021/06/10 02:19:38;;;;;;;3.03;2.92;;;15.00;94.80;;;;;;5051077;28;20664;-73
2021/06/10 02:22:05;;;;;;;3.42;3.30;;;15.00;94.40;;;;;;5049905;28;20648;-73
2021/06/10 02:24:31;;;;;;;4.07;3.88;;;14.90;94.30;;;;;;5051058;28;20182;-73
2021/06/10 02:26:57;;;;;;;6.53;4.22;;;14.90;94.40;;;;;;5050913;28;20180;-72
2021/06/10 02:29:22;;;;;;;3.40;3.15;;;14.90;94.40;;;;;;5050830;28;20175;-72
2021/06/10 02:31:48;;;;;;;4.05;3.80;;;14.90;94.40;;;;;;5051152;28;20187;-73
2021/06/10 02:34:14;;;;;;;3.63;3.42;;;14.90;94.40;;;;;;5051150;28;20210;-73
2021/06/10 02:36:42;;;;;;;3.83;3.63;;;14.90;94.60;;;;;;5050047;28;20175;-73
2021/06/10 02:39:11;;;;;;;3.20;3.10;;;14.90;94.60;;;;;;5050584;28;20282;-72
2021/06/10 02:41:48;;;;;;;3.30;3.10;;;14.90;94.80;;;;;;5050149;28;20191;-73
2021/06/10 02:44:15;;;;;;;2.90;2.70;;;14.80;94.30;;;;;;5048040;28;20266;-73
2021/06/10 02:46:41;;;;;;;3.40;3.30;;;14.80;94.80;;;;;;5047832;28;20203;-73
2021/06/10 02:49:09;;;;;;;3.53;2.90;;;14.80;94.60;;;;;;5046350;28;20843;-72
2021/06/10 02:51:36;;;;;;;3.33;3.17;;;14.80;94.90;;;;;;5050255;28;20729;-73
2021/06/10 02:54:05;;;;;;;6.15;3.10;;;14.80;95.00;;;;;;5050454;28;20214;-72
2021/06/10 02:56:31;;;;;;;3.20;3.00;;;14.70;95.20;;;;;;5050597;28;20542;-73
2021/06/10 02:59:00;;;;;;;4.25;3.88;;;14.70;95.40;;;;;;5050735;28;20179;-73
2021/06/10 03:01:26;;;;;;;3.83;3.63;;;14.70;95.30;;;;;;5045596;28;20184;-73
2021/06/10 03:03:52;;;;;;;3.60;3.40;;;14.70;95.40;;;;;;5046062;28;20194;-72
2021/06/10 03:06:18;;;;;;;3.40;3.30;;;14.70;95.20;;;;;;5048060;28;20184;-72
2021/06/10 03:08:51;;;;;;;3.28;2.97;;;14.70;95.20;;;;;;5048306;28;20218;-73
2021/06/10 03:11:20;;;;;;;3.17;2.95;;;14.70;95.00;;;;;;5048039;28;20207;-73
2021/06/10 03:13:47;;;;;;;2.72;2.63;;;14.70;95.30;;;;;;5046518;28;20192;-73
2021/06/10 03:16:14;;;;;;;3.20;3.10;;;14.70;95.30;;;;;;5042157;28;20192;-73
2021/06/10 03:18:40;;;;;;;3.38;3.22;;;14.70;95.30;;;;;;5049402;28;20172;-73
2021/06/10 03:21:06;;;;;;;3.70;3.50;;;14.70;95.40;;;;;;5047023;28;20191;-72
2021/06/10 03:23:32;;;;;;;2.78;2.65;;;14.70;95.50;;;;;;5029981;28;20191;-72
2021/06/10 03:26:03;;;;;;;2.70;2.60;;;14.70;95.40;;;;;;5049717;28;20176;-72
2021/06/10 03:28:29;;;;;;;2.80;2.72;;;14.70;95.20;;;;;;5046707;28;20183;-72
2021/06/10 03:30:55;;;;;;;3.33;3.17;;;14.70;95.30;;;;;;5048673;28;20938;-72
2021/06/10 03:33:22;;;;;;;3.50;3.17;;;14.70;95.40;;;;;;5049226;28;20250;-72
2021/06/10 03:35:49;;;;;;;3.25;3.13;;;14.70;95.40;;;;;;5048919;28;20226;-72
2021/06/10 03:38:15;;;;;;;3.05;2.95;;;14.80;95.40;;;;;;5049275;28;20183;-72
2021/06/10 03:40:47;;;;;;;3.30;3.13;;;14.80;95.40;;;;;;5054618;28;20272;-73
2021/06/10 03:43:15;;;;;;;3.65;3.53;;;14.80;95.20;;;;;;5048460;28;20184;-72
2021/06/10 03:45:41;;;;;;;3.90;3.70;;;14.80;95.30;;;;;;5046571;28;20180;-73
2021/06/10 03:48:09;;;;;;;9.07;4.75;;;14.90;95.30;;;;;;5047911;28;20227;-73
2021/06/10 03:50:36;;;;;;;7.22;3.13;;;14.90;95.10;;;;;;5048297;28;20249;-72
2021/06/10 03:53:06;;;;;;;3.50;3.20;;;14.90;95.30;;;;;;5046935;28;20184;-72
2021/06/10 03:55:32;;;;;;;4.07;3.88;;;14.90;95.30;;;;;;5038992;28;20236;-73
2021/06/10 03:57:58;;;;;;;3.88;3.67;;;15.00;95.40;;;;;;5049106;28;20613;-73
2021/06/10 04:00:24;;;;;;;3.70;3.50;;;15.00;95.40;;;;;;5046348;28;20215;-73
2021/06/10 04:02:50;;;;;;;4.10;3.70;;;15.00;95.30;;;;;;5057821;28;20733;-72
2021/06/10 04:05:16;;;;;;;3.90;3.35;;;15.00;95.30;;;;;;5050993;28;20179;-72
2021/06/10 04:07:42;;;;;;;3.92;3.72;;;15.00;95.40;;;;;;5047011;28;20175;-72
2021/06/10 04:10:08;;;;;;;3.83;3.63;;;15.10;95.60;;;;;;5049121;28;20246;-73
2021/06/10 04:12:34;;;;;;;3.80;3.63;;;15.10;95.50;;;;;;5048146;28;20184;-72
2021/06/10 04:15:00;;;;;;;5.70;3.78;;;15.10;95.40;;;;;;5046109;28;20214;-72
2021/06/10 04:17:25;;;;;;;5.15;3.53;;;15.10;95.60;;;;;;5047712;28;20187;-72
2021/06/10 04:19:51;;;;;;;2.95;2.85;;;15.20;95.20;;;;;;5049382;28;20194;-72
2021/06/10 04:22:17;;;;;;;5.65;3.28;;;15.20;95.00;;;;;;5047931;28;20195;-72
2021/06/10 04:24:43;;;;;;;6.45;3.88;;;15.30;94.80;;;;;;5046021;28;20641;-72
2021/06/10 04:27:09;;;;;;;8.45;3.53;;;15.30;94.70;;;;;;5048724;28;20183;-73
2021/06/10 04:29:35;;;;;;;6.00;4.65;;;15.40;94.60;;;;;;5048981;28;20176;-72
2021/06/10 04:32:01;;;;;;;8.05;5.22;;;15.40;94.50;;;;;;5046158;28;20191;-73
2021/06/10 04:34:27;;;;;;;10.93;4.68;;;15.40;94.70;;;;;;5050313;28;20716;-73
2021/06/10 04:36:53;;;;;;;5.88;4.00;;;15.50;94.40;;;;;;5050849;28;20214;-74
2021/06/10 04:39:19;;;;;;;7.38;3.75;;;15.50;94.40;;;;;;5050742;28;20199;-74
2021/06/10 04:41:44;;;;;;;13.55;4.20;;;15.60;94.20;;;;;;5048133;28;20183;-74
2021/06/10 04:44:10;;;;;;;3.92;3.72;;;15.70;94.00;;;;;;5033186;28;20187;-74
2021/06/10 04:46:37;;;;;;;4.07;3.65;;;15.70;94.00;;;;;;5048336;28;20176;-71
2021/06/10 04:49:04;;;;;;;6.47;4.38;;;15.80;93.80;;;;;;5048069;28;20271;-71
2021/06/10 04:51:30;;;;;;;4.30;4.00;;;15.80;93.80;;;;;;5037262;28;20221;-72
2021/06/10 04:53:57;;;;;;;4.10;3.90;;;15.90;93.60;;;;;;5045460;28;20215;-72
2021/06/10 04:56:23;;;;;;;4.82;4.40;;;15.90;93.40;;;;;;5050788;28;20188;-72
2021/06/10 04:58:49;;;;;;;4.88;4.47;;;16.00;93.20;;;;;;5048299;28;20223;-72
2021/06/10 05:01:15;;;;;;;6.35;4.35;;;16.00;93.10;;;;;;5046645;28;20176;-71
2021/06/10 05:03:41;;;;;;;4.15;3.88;;;16.10;93.00;;;;;;5052990;28;20245;-70
2021/06/10 05:06:07;;;;;;;4.78;4.25;;;16.20;92.90;;;;;;5046506;28;20187;-71
2021/06/10 05:08:33;;;;;;;3.80;3.60;;;16.20;92.70;;;;;;5040986;28;20755;-73
2021/06/10 05:11:00;;;;;;;4.43;4.13;;;16.30;92.60;;;;;;5046114;28;20191;-72
2021/06/10 05:13:26;;;;;;;4.40;4.00;;;16.30;92.40;;;;;;5042442;28;20183;-72
2021/06/10 05:15:51;;;;;;;7.03;4.10;;;16.40;92.20;;;;;;5046985;28;20569;-74
2021/06/10 05:18:18;;;;;;;5.32;3.85;;;16.40;92.10;;;;;;5048386;28;20179;-74
2021/06/10 05:20:44;;;;;;;4.30;3.63;;;16.50;91.90;;;;;;5047566;28;20687;-71
2021/06/10 05:23:10;;;;;;;4.05;3.75;;;16.60;91.70;;;;;;5044873;28;20320;-72
2021/06/10 05:25:35;;;;;;;3.80;3.70;;;16.60;91.50;;;;;;5048091;28;20406;-75
2021/06/10 05:28:01;;;;;;;4.20;3.92;;;16.70;91.30;;;;;;5045263;28;20242;-73
2021/06/10 05:30:27;;;;;;;6.10;3.40;;;16.80;91.30;;;;;;5028389;28;20190;-74
2021/06/10 05:32:54;;;;;;;3.95;3.72;;;16.80;91.20;;;;;;5045446;28;20179;-75
2021/06/10 05:35:20;;;;;;;3.95;3.75;;;16.90;91.10;;;;;;5051066;28;20359;-75
2021/06/10 05:37:45;;;;;;;4.72;3.95;;;16.90;90.80;;;;;;5049041;28;20309;-74
2021/06/10 05:40:12;;;;;;;14.82;4.60;;;17.00;90.80;;;;;;5045199;28;20736;-75
2021/06/10 05:42:38;;;;;;;6.35;4.38;;;17.10;90.60;;;;;;5045456;28;20218;-74
2021/06/10 05:45:05;;;;;;;5.95;3.97;;;17.10;90.60;;;;;;5031277;28;20286;-75
2021/06/10 05:47:30;;;;;;;4.22;4.00;;;17.20;90.60;;;;;;5050905;28;20172;-75
2021/06/10 05:49:56;;;;;;;4.95;4.50;;;17.30;90.70;;;;;;5047277;28;20263;-75
2021/06/10 05:52:23;;;;;;;4.40;4.00;;;17.30;90.40;;;;;;5052744;28;20183;-74
2021/06/10 05:54:50;;;;;;;5.07;3.70;;;17.40;90.40;;;;;;5029082;28;20211;-73
2021/06/10 05:57:16;;;;;;;5.28;4.78;;;17.40;90.40;;;;;;5046575;28;20215;-73
2021/06/10 05:59:43;;;;;;;4.47;4.18;;;17.50;90.30;;;;;;5047095;28;20603;-73
2021/06/10 06:02:09;;;;;;;5.85;4.35;;;17.60;90.30;;;;;;5028867;28;20588;-73
2021/06/10 06:04:34;;;;;;;5.78;4.50;;;17.70;90.10;;;;;;5047431;28;20183;-73
2021/06/10 06:07:00;;;;;;;5.05;4.38;;;17.70;89.90;;;;;;5047376;28;20570;-73
2021/06/10 06:09:26;;;;;;;4.65;4.40;;;17.70;89.70;;;;;;5047284;28;20260;-73
2021/06/10 06:11:54;;;;;;;7.03;4.28;;;17.80;89.20;;;;;;5045804;28;20176;-72
2021/06/10 06:14:25;;;;;;;4.50;4.30;;;17.90;89.10;;;;;;5034642;28;20211;-73
2021/06/10 06:16:51;;;;;;;4.28;3.83;;;17.90;88.60;;;;;;5045596;28;20344;-73
2021/06/10 06:19:17;;;;;;;4.18;3.80;;;18.00;89.00;;;;;;5045865;28;20286;-73
2021/06/10 06:21:43;;;;;;;6.05;4.30;;;18.00;88.70;;;;;;5045433;28;20217;-74
2021/06/10 06:24:10;;;;;;;4.97;3.85;;;18.10;88.80;;;;;;5045503;28;20274;-73
2021/06/10 06:26:36;;;;;;;10.10;4.38;;;18.10;88.80;;;;;;5045360;28;20538;-73
2021/06/10 06:29:03;;;;;;;3.45;3.35;;;18.20;88.60;;;;;;5045575;28;20182;-73
2021/06/10 06:31:29;;;;;;;4.78;3.40;;;18.30;88.40;;;;;;5044336;28;20249;-73
2021/06/10 06:33:56;;;;;;;7.53;4.45;;;18.30;88.30;;;;;;5045529;28;20620;-73
2021/06/10 06:36:21;;;;;;;3.72;3.53;;;18.40;87.80;;;;;;5045529;28;20183;-73
2021/06/10 06:38:48;;;;;;;4.28;3.92;;;18.40;87.50;;;;;;5026995;28;20187;-73
2021/06/10 06:41:15;;;;;;;4.82;4.28;;;18.50;86.80;;;;;;5045240;28;20183;-72
2021/06/10 06:43:40;;;;;;;5.65;3.95;;;18.60;87.10;;;;;;5045022;28;20194;-73
2021/06/10 06:46:08;;;;;;;8.05;4.05;;;18.60;87.40;;;;;;5045067;28;20180;-73
2021/06/10 06:48:34;;;;;;;6.97;4.30;;;18.70;86.80;;;;;;5045184;28;20183;-73
2021/06/10 06:51:00;;;;;;;5.53;5.05;;;18.80;87.00;;;;;;5045226;28;20180;-73
2021/06/10 06:53:29;;;;;;;5.72;5.18;;;18.90;87.00;;;;;;5046570;28;20579;-73
2021/06/10 06:55:59;;;;;;;5.03;4.70;;;19.00;86.70;;;;;;5046913;28;20574;-73
2021/06/10 06:58:25;;;;;;;5.90;4.93;;;19.10;86.60;;;;;;5049428;28;20184;-73
2021/06/10 07:00:52;;;;;;;4.72;4.30;;;19.20;86.70;;;;;;5048560;28;20199;-73
2021/06/10 07:03:18;;;;;;;3.80;3.60;;;19.30;86.40;;;;;;5048664;28;20187;-73
2021/06/10 07:05:43;;;;;;;3.90;3.58;;;19.50;85.50;;;;;;5048721;28;20241;-72
2021/06/10 07:08:09;;;;;;;3.45;3.33;;;19.70;85.50;;;;;;5049173;28;20184;-71
2021/06/10 07:10:35;;;;;;;3.15;3.05;;;19.80;84.50;;;;;;5048742;28;20753;-74
2021/06/10 07:13:01;;;;;;;3.72;3.47;;;20.00;84.50;;;;;;5048780;28;20586;-73
2021/06/10 07:15:27;;;;;;;2.63;2.53;;;20.20;83.90;;;;;;5047202;28;20219;-74
2021/06/10 07:17:52;;;;;;;2.45;2.35;;;20.50;83.20;;;;;;5048693;28;20192;-73
2021/06/10 07:20:18;;;;;;;2.97;2.78;;;20.60;82.60;;;;;;5048491;28;20190;-73
2021/06/10 07:22:44;;;;;;;3.58;2.70;;;20.90;82.40;;;;;;5048214;28;20557;-73
2021/06/10 07:25:10;;;;;;;3.60;3.17;;;21.10;82.10;;;;;;5048584;28;20326;-72
2021/06/10 07:27:36;;;;;;;3.38;3.28;;;21.30;81.80;;;;;;5045110;28;20177;-71
2021/06/10 07:30:04;;;;;;;3.70;3.53;;;21.60;81.00;;;;;;5048667;28;20661;-75
2021/06/10 07:32:30;;;;;;;4.20;3.40;;;21.80;81.00;;;;;;5048838;28;20180;-74
2021/06/10 07:34:56;;;;;;;4.03;3.63;;;22.00;81.50;;;;;;5048349;28;20688;-73
2021/06/10 07:37:22;;;;;;;3.08;2.97;;;22.20;81.10;;;;;;5048163;28;20179;-73
2021/06/10 07:39:47;;;;;;;4.78;3.25;;;22.30;80.20;;;;;;5048236;28;20203;-73
2021/06/10 07:42:13;;;;;;;5.25;2.95;;;22.40;79.70;;;;;;5049057;28;20180;-73
2021/06/10 07:44:39;;;;;;;4.25;2.53;;;22.50;78.60;;;;;;5048221;28;20190;-73
2021/06/10 07:47:05;;;;;;;2.50;2.50;;;22.60;77.20;;;;;;5048496;28;20270;-72
2021/06/10 07:49:33;;;;;;;2.47;2.38;;;22.60;78.00;;;;;;5048094;28;20187;-73
2021/06/10 07:51:59;;;;;;;2.65;2.60;;;22.60;78.20;;;;;;5048168;28;20187;-76
2021/06/10 07:54:26;;;;;;;2.50;2.40;;;22.60;78.10;;;;;;5047391;28;20204;-71
2021/06/10 07:56:51;;;;;;;2.60;2.35;;;22.70;77.70;;;;;;5047714;28;20278;-73
2021/06/10 07:59:23;;;;;;;2.60;2.60;;;22.80;77.10;;;;;;5047435;28;20258;-72
2021/06/10 08:01:49;;;;;;;2.17;2.05;;;22.90;76.60;;;;;;5043020;28;20616;-74
2021/06/10 08:04:15;;;;;;;1.77;1.77;;;22.90;76.10;;;;;;5047046;28;20191;-72
2021/06/10 08:06:41;;;;;;;1.77;1.77;;;23.00;73.80;;;;;;5047114;28;20179;-72
2021/06/10 08:09:06;;;;;;;1.58;1.58;;;23.00;75.40;;;;;;5043351;28;20222;-72
2021/06/10 08:11:34;;;;;;;1.30;1.30;;;23.10;74.60;;;;;;5048053;28;20190;-73
2021/06/10 08:13:59;;;;;;;1.30;1.30;;;23.10;74.20;;;;;;5047728;28;20946;-72
2021/06/10 08:16:25;;;;;;;1.10;1.10;;;23.00;72.50;;;;;;5047672;28;20185;-72
2021/06/10 08:18:51;;;;;;;1.40;0.98;;;23.00;72.60;;;;;;5047183;28;20544;-73
2021/06/10 08:21:17;;;;;;;1.13;1.05;;;22.90;71.80;;;;;;5047691;28;20210;-73
2021/06/10 08:23:42;;;;;;;1.70;1.08;;;22.90;71.00;;;;;;5047219;28;20184;-72
2021/06/10 08:26:08;;;;;;;1.10;1.10;;;23.00;71.10;;;;;;5047061;28;20191;-71
2021/06/10 08:28:34;;;;;;;1.17;1.17;;;23.00;71.30;;;;;;5047285;28;20661;-72
2021/06/10 08:31:02;;;;;;;3.08;1.10;;;23.10;71.70;;;;;;5047128;28;20270;-72
2021/06/10 08:33:27;;;;;;;3.50;1.48;;;23.10;71.40;;;;;;5047298;28;20188;-72
2021/06/10 08:35:56;;;;;;;1.02;1.02;;;23.10;71.70;;;;;;5047878;28;20203;-72
2021/06/10 08:38:21;;;;;;;1.20;1.20;;;23.00;72.10;;;;;;5047370;28;20550;-72
2021/06/10 08:40:48;;;;;;;1.58;1.00;;;22.90;71.60;;;;;;5046845;28;20198;-72
2021/06/10 08:43:14;;;;;;;1.45;1.27;;;22.90;72.50;;;;;;5046942;28;20214;-73
2021/06/10 08:45:45;;;;;;;1.30;1.30;;;22.80;72.40;;;;;;5046882;28;20191;-73
2021/06/10 08:48:11;;;;;;;1.45;1.45;;;22.80;72.60;;;;;;5046984;28;20176;-72
2021/06/10 08:50:36;;;;;;;1.90;1.80;;;22.70;72.20;;;;;;5046606;28;20630;-72
2021/06/10 08:53:02;;;;;;;2.53;2.25;;;22.60;72.60;;;;;;5046997;28;20180;-72
2021/06/10 08:55:29;;;;;;;3.60;2.42;;;22.30;72.60;;;;;;5044970;28;20277;-72
2021/06/10 08:57:55;;;;;;;2.28;2.17;;;22.10;73.90;;;;;;5028205;28;20648;-72
2021/06/10 09:00:23;;;;;;;2.67;2.40;;;21.90;75.20;;;;;;5047433;28;20210;-71
2021/06/10 09:02:54;;;;;;;3.80;2.35;;;21.80;76.40;;;;;;5047295;28;20175;-72
2021/06/10 09:05:21;;;;;;;2.97;2.78;;;21.70;77.20;;;;;;5047566;28;20187;-73
2021/06/10 09:07:58;;;;;;;2.97;2.88;;;21.60;77.30;;;;;;5043714;28;20180;-70
2021/06/10 09:10:29;;;;;;;2.55;2.42;;;21.40;77.70;;;;;;5047650;28;20723;-73
2021/06/10 09:12:58;;;;;;;2.45;2.35;;;21.20;77.80;;;;;;5046755;28;20261;-73
2021/06/10 09:15:26;;;;;;;2.67;2.58;;;21.10;78.10;;;;;;5045905;28;20219;-73
2021/06/10 09:17:59;;;;;;;3.88;2.53;;;21.10;78.50;;;;;;5046002;28;20179;-72
2021/06/10 09:20:26;;;;;;;2.10;2.10;;;21.10;77.50;;;;;;5045361;28;20267;-73
2021/06/10 09:23:26;;;;;;;2.20;2.13;;;21.10;76.80;;;;;;5027757;28;20203;-73
2021/06/10 09:26:04;;;;;;;1.73;1.73;;;21.20;76.30;;;;;;5038242;28;20184;-72
2021/06/10 09:28:42;;;;;;;4.10;1.80;;;21.30;75.60;;;;;;5043437;28;20178;-72
2021/06/10 09:31:08;;;;;;;2.53;1.70;;;21.40;74.30;;;;;;5045955;28;20191;-73
2021/06/10 09:33:42;;;;;;;1.60;1.60;;;21.50;71.90;;;;;;5044300;28;20188;-72
2021/06/10 09:36:14;;;;;;;2.88;1.60;;;21.70;73.90;;;;;;5045875;28;20603;-72
2021/06/10 09:38:40;;;;;;;1.90;1.70;;;21.90;74.40;;;;;;5045984;28;20176;-72
2021/06/10 09:41:07;;;;;;;1.85;1.85;;;22.10;73.40;;;;;;5045751;28;20187;-71
2021/06/10 09:43:42;;;;;;;1.70;1.70;;;22.30;72.50;;;;;;5046021;28;20228;-72
2021/06/10 09:46:08;;;;;;;2.22;1.50;;;22.50;73.00;;;;;;5039939;28;20240;-71
2021/06/10 09:48:34;;;;;;;1.70;1.70;;;22.70;73.70;;;;;;5043003;28;20183;-71
2021/06/10 09:51:01;;;;;;;2.10;2.00;;;23.00;73.50;;;;;;5045952;28;20448;-70
2021/06/10 09:53:32;;;;;;;3.95;3.75;;;23.30;71.00;;;;;;5046197;28;20217;-72
2021/06/10 09:56:05;;;;;;;2.85;2.20;;;23.50;71.20;;;;;;5038288;28;20645;-72
2021/06/10 09:58:36;;;;;;;1.27;1.27;;;23.70;70.90;;;;;;5039817;28;20578;-72
2021/06/10 10:01:21;;;;;;;2.60;1.98;;;23.90;70.10;;;;;;5045951;28;20203;-72
2021/06/10 10:03:49;;;;;;;1.02;1.02;;;24.00;68.40;;;;;;5045638;28;20847;-72
2021/06/10 10:06:24;;;;;;;1.00;1.00;;;24.10;67.30;;;;;;5044033;28;20188;-71
2021/06/10 10:09:01;;;;;;;0.90;0.90;;;24.30;66.20;;;;;;5042568;28;20259;-70
2021/06/10 10:11:30;;;;;;;1.08;1.08;;;24.30;65.60;;;;;;5044504;28;20731;-71
2021/06/10 10:13:57;;;;;;;1.10;1.10;;;24.30;66.00;;;;;;5043117;28;20675;-73
2021/06/10 10:16:28;;;;;;;1.95;1.17;;;24.40;66.50;;;;;;5042973;28;20276;-72
2021/06/10 10:18:56;;;;;;;1.15;1.15;;;24.60;67.50;;;;;;5044010;28;20190;-72
2021/06/10 10:21:27;;;;;;;1.27;1.27;;;24.80;67.40;;;;;;5044939;28;20667;-72
2021/06/10 10:24:07;;;;;;;0.93;0.93;;;25.10;67.00;;;;;;5044892;28;20190;-70
2021/06/10 10:26:36;;;;;;;0.80;0.80;;;25.40;64.60;;;;;;5044643;28;20188;-71
2021/06/10 10:29:05;;;;;;;1.10;1.10;;;25.60;62.60;;;;;;5046907;28;20236;-72
2021/06/10 10:31:33;;;;;;;1.75;1.05;;;25.90;63.00;;;;;;5048170;28;20175;-73
2021/06/10 10:33:59;;;;;;;0.82;0.82;;;26.30;63.50;;;;;;5048232;28;20557;-72
2021/06/10 10:36:30;;;;;;;0.85;0.85;;;26.80;60.20;;;;;;5046044;28;20196;-72
2021/06/10 10:39:07;;;;;;;2.17;0.60;;;27.20;61.50;;;;;;5042584;28;20290;-72
2021/06/10 10:41:53;;;;;;;1.58;0.88;;;27.70;60.60;;;;;;5048043;28;20198;-72
2021/06/10 10:44:26;;;;;;;0.70;0.70;;;28.10;59.20;;;;;;5048451;28;20610;-72
2021/06/10 10:47:00;;;;;;;1.42;1.35;;;28.50;57.70;;;;;;5047945;28;20241;-72
2021/06/10 10:49:29;;;;;;;0.80;0.80;;;28.90;59.70;;;;;;5046602;28;20194;-72
2021/06/10 10:52:18;;;;;;;0.80;0.80;;;29.40;57.60;;;;;;5048645;28;20190;-72
2021/06/10 10:54:49;;;;;;;0.77;0.70;;;30.00;54.60;;;;;;5044173;28;20916;-71
2021/06/10 10:57:30;;;;;;;1.17;0.90;;;30.30;55.70;;;;;;5041492;28;20184;-71
2021/06/10 10:59:57;;;;;;;0.75;0.70;;;30.50;55.40;;;;;;5047440;28;20191;-71
2021/06/10 11:02:26;;;;;;;4.03;0.65;;;31.00;55.10;;;;;;5047783;28;20195;-71
2021/06/10 11:04:53;;;;;;;0.60;0.60;;;31.60;52.60;;;;;;5047649;28;20548;-70
2021/06/10 11:07:40;;;;;;;0.50;0.50;;;32.10;55.30;;;;;;5042986;28;20188;-70
2021/06/10 11:10:10;;;;;;;2.28;0.63;;;32.60;53.00;;;;;;4952715;28;2619821;-72
2021/06/10 11:12:44;;;;;;;0.40;0.40;;;32.90;50.30;;;;;;5048871;28;20685;-72
2021/06/10 11:15:33;;;;;;;0.50;0.50;;;32.90;48.60;;;;;;5048514;28;20227;-73
2021/06/10 11:18:06;;;;;;;0.65;0.65;;;32.70;49.10;;;;;;5024960;28;20191;-72
2021/06/10 11:20:37;;;;;;;0.60;0.60;;;32.60;52.40;;;;;;5048812;28;20214;-72
2021/06/10 11:23:29;;;;;;;0.90;0.77;;;32.50;52.30;;;;;;5048462;28;20187;-72
2021/06/10 11:26:01;;;;;;;0.93;0.63;;;32.60;51.50;;;;;;5040566;28;20203;-72
2021/06/10 11:28:36;;;;;;;0.90;0.90;;;32.90;51.50;;;;;;5048415;28;20171;-72
2021/06/10 11:31:15;;;;;;;2.83;0.70;;;33.40;50.00;;;;;;5048656;28;20182;-72
2021/06/10 11:33:41;;;;;;;1.15;1.05;;;33.90;49.70;;;;;;5048465;28;20257;-72
2021/06/10 11:36:09;;;;;;;1.95;1.05;;;34.20;50.20;;;;;;5048332;28;20215;-71
2021/06/10 11:38:49;;;;;;;1.20;1.10;;;34.20;51.00;;;;;;5048141;28;20274;-71
2021/06/10 11:41:23;;;;;;;0.95;0.95;;;34.10;48.80;;;;;;5046620;28;20183;-73
2021/06/10 11:43:58;;;;;;;0.70;0.70;;;33.90;51.20;;;;;;5042728;28;20186;-71
2021/06/10 11:46:34;;;;;;;1.02;1.02;;;33.80;51.70;;;;;;5043862;28;20336;-72
2021/06/10 11:48:59;;;;;;;0.93;0.93;;;33.60;49.50;;;;;;5047875;28;20187;-72
2021/06/10 11:51:31;;;;;;;1.00;1.00;;;33.40;50.30;;;;;;5047991;28;20191;-72
2021/06/10 11:54:07;;;;;;;0.77;0.77;;;32.80;50.00;;;;;;5047880;28;20300;-72
2021/06/10 11:56:33;;;;;;;0.70;0.70;;;32.20;51.50;;;;;;5042140;28;20609;-72
2021/06/10 11:59:17;;;;;;;0.90;0.90;;;31.80;53.00;;;;;;5048160;28;20573;-71
2021/06/10 12:02:05;;;;;;;1.10;1.10;;;31.30;50.90;;;;;;5043218;28;20190;-75
2021/06/10 12:04:32;;;;;;;0.70;0.70;;;30.60;51.40;;;;;;5050520;28;20191;-73
2021/06/10 12:07:27;;;;;;;0.70;0.70;;;30.40;56.10;;;;;;5045236;28;20186;-72
2021/06/10 12:09:56;;;;;;;0.82;0.82;;;30.10;50.40;;;;;;4996567;28;20244;-71
2021/06/10 12:12:37;;;;;;;0.80;0.80;;;29.80;54.40;;;;;;5002745;28;20181;-72
2021/06/10 12:15:03;;;;;;;1.95;1.27;;;29.60;53.40;;;;;;4994079;28;20252;-71
2021/06/10 12:17:47;;;;;;;0.98;0.93;;;29.40;55.80;;;;;;5006162;28;20196;-70
2021/06/10 12:20:22;;;;;;;2.47;1.00;;;29.40;55.80;;;;;;4997045;28;20219;-70
2021/06/10 12:22:48;;;;;;;1.85;0.90;;;29.30;53.90;;;;;;4992695;28;20654;-70
2021/06/10 12:25:20;;;;;;;0.95;0.95;;;29.20;53.90;;;;;;4998213;28;20581;-71
2021/06/10 12:27:46;;;;;;;0.85;0.85;;;29.20;53.30;;;;;;4985145;28;20197;-70
2021/06/10 12:30:22;;;;;;;1.20;1.20;;;29.30;55.30;;;;;;5000775;28;20435;-71
2021/06/10 12:32:48;;;;;;;0.88;0.70;;;29.40;54.20;;;;;;5005180;28;20180;-70
2021/06/10 12:35:19;;;;;;;0.75;0.75;;;29.40;54.10;;;;;;4991442;28;20623;-71
2021/06/10 12:37:52;;;;;;;0.80;0.80;;;29.30;54.50;;;;;;5008871;28;20344;-70
2021/06/10 12:40:18;;;;;;;0.90;0.90;;;29.30;54.90;;;;;;5003998;28;20220;-71
2021/06/10 12:43:13;;;;;;;0.80;0.80;;;29.10;54.70;;;;;;5002281;28;20806;-71
2021/06/10 12:45:40;;;;;;;1.38;1.27;;;29.10;53.10;;;;;;5006507;28;20200;-70
2021/06/10 12:48:26;;;;;;;1.30;1.13;;;29.30;55.50;;;;;;5042253;28;20187;-71
2021/06/10 12:51:16;;;;;;;2.35;1.17;;;29.50;55.00;;;;;;5053074;28;20179;-69
2021/06/10 12:53:56;;;;;;;3.13;1.20;;;29.60;55.80;;;;;;5057537;28;20188;-72